Time;durP1;ratioP1;P1;durP2;ratioP2;P2;SDS_P1;SDS_P2;PMS_P1;PMS_P2;Temp;Humidity;BMP_temperature;BMP_pressure;BME280_temperature;BME280_humidity;BME280_pressure;Samples;Min_cycle;Max_cycle;Signal;HPM_P1;HPM_P2
2023/09/04 04:32:00;;;;;;;0.00;0.00;;;22.20;73.70;;;;;;5171613;23;20055;-78
2023/09/04 04:34:25;;;;;;;0.00;0.00;;;22.20;73.90;;;;;;4955787;28;20098;-79
2023/09/04 04:36:56;;;;;;;0.00;0.00;;;22.20;73.80;;;;;;4970108;28;20460;-79
2023/09/04 04:39:22;;;;;;;0.00;0.00;;;22.10;74.00;;;;;;4964712;28;20024;-79
2023/09/04 04:41:48;;;;;;;0.00;0.00;;;22.10;74.20;;;;;;4974315;28;20031;-79
2023/09/04 04:44:14;;;;;;;0.00;0.00;;;22.10;74.10;;;;;;4980056;28;20517;-79
2023/09/04 04:46:40;;;;;;;0.00;0.00;;;22.10;74.00;;;;;;4963730;28;20042;-79
2023/09/04 04:49:06;;;;;;;0.00;0.00;;;22.10;74.10;;;;;;4950066;28;20031;-79
2023/09/04 04:51:32;;;;;;;0.00;0.00;;;22.10;74.20;;;;;;4954372;28;20123;-77
2023/09/04 04:53:58;;;;;;;0.00;0.00;;;22.10;74.30;;;;;;4941573;29;20079;-79
2023/09/04 04:56:24;;;;;;;0.00;0.00;;;22.10;74.20;;;;;;4943294;29;20038;-77
2023/09/04 04:58:50;;;;;;;0.00;0.00;;;22.10;74.20;;;;;;4959640;29;20027;-82
2023/09/04 05:01:15;;;;;;;0.00;0.00;;;22.10;74.60;;;;;;4942173;29;20039;-81
2023/09/04 05:03:41;;;;;;;0.03;0.00;;;22.00;74.50;;;;;;4957934;29;20027;-79
2023/09/04 05:06:07;;;;;;;0.00;0.00;;;22.10;74.60;;;;;;4953628;28;20027;-78
2023/09/04 05:08:33;;;;;;;0.00;0.00;;;22.00;74.70;;;;;;4978538;28;20031;-79
2023/09/04 05:11:04;;;;;;;0.00;0.00;;;22.00;74.80;;;;;;4964403;28;20036;-78
2023/09/04 05:13:31;;;;;;;0.00;0.00;;;22.00;74.80;;;;;;4924413;29;20378;-79
2023/09/04 05:16:03;;;;;;;0.00;0.00;;;22.00;74.80;;;;;;4952564;29;20035;-81
2023/09/04 05:18:29;;;;;;;0.00;0.00;;;22.00;74.90;;;;;;4960478;29;20023;-91
2023/09/04 05:20:55;;;;;;;0.10;0.00;;;22.10;74.80;;;;;;4960394;29;20027;-85
2023/09/04 05:23:21;;;;;;;0.00;0.00;;;22.00;74.90;;;;;;4942152;29;20090;-86
2023/09/04 05:25:53;;;;;;;0.00;0.00;;;22.00;75.00;;;;;;4959745;29;20110;-86
2023/09/04 05:28:19;;;;;;;0.00;0.00;;;22.00;75.00;;;;;;4959946;29;20409;-87
2023/09/04 05:30:45;;;;;;;0.00;0.00;;;22.00;75.20;;;;;;4957786;29;20047;-87
2023/09/04 05:33:11;;;;;;;0.00;0.00;;;22.00;75.20;;;;;;4946837;29;20032;-87
2023/09/04 05:35:37;;;;;;;0.00;0.00;;;22.00;75.20;;;;;;4924186;29;20028;-86
2023/09/04 05:38:02;;;;;;;0.00;0.00;;;22.00;75.30;;;;;;4940760;29;20507;-85
2023/09/04 05:40:28;;;;;;;0.00;0.00;;;22.00;75.30;;;;;;4956566;28;20051;-86
2023/09/04 05:42:54;;;;;;;0.00;0.00;;;22.00;75.30;;;;;;4971571;28;20043;-86
2023/09/04 05:45:21;;;;;;;0.00;0.00;;;22.00;75.40;;;;;;4940717;29;20035;-85
2023/09/04 05:47:46;;;;;;;0.00;0.00;;;22.00;75.30;;;;;;4955732;28;20030;-83
2023/09/04 05:50:13;;;;;;;0.00;0.00;;;22.00;75.30;;;;;;4943255;29;20040;-84
2023/09/04 05:52:39;;;;;;;0.00;0.00;;;22.00;75.30;;;;;;4943543;28;20125;-84
2023/09/04 05:55:06;;;;;;;0.00;0.00;;;22.00;75.20;;;;;;4955653;28;20050;-83
2023/09/04 05:57:32;;;;;;;0.00;0.00;;;22.00;75.20;;;;;;4968140;28;20047;-85
2023/09/04 05:59:58;;;;;;;0.00;0.00;;;22.10;75.20;;;;;;4965971;28;20038;-85
2023/09/04 06:02:24;;;;;;;0.08;0.00;;;22.10;75.10;;;;;;4968928;28;20035;-86
2023/09/04 06:04:50;;;;;;;0.00;0.00;;;22.10;75.20;;;;;;4942243;29;20038;-85
2023/09/04 06:07:16;;;;;;;0.00;0.00;;;22.00;75.30;;;;;;4959295;29;20118;-84
2023/09/04 06:09:44;;;;;;;0.00;0.00;;;22.10;75.30;;;;;;4957410;28;20070;-85
2023/09/04 06:12:11;;;;;;;0.00;0.00;;;22.20;75.20;;;;;;4958782;28;20031;-85
2023/09/04 06:14:38;;;;;;;0.10;0.10;;;22.10;75.10;;;;;;4950453;28;20024;-84
2023/09/04 06:17:04;;;;;;;0.00;0.00;;;22.20;75.10;;;;;;4958490;28;20027;-85
2023/09/04 06:19:30;;;;;;;0.08;0.00;;;22.20;75.10;;;;;;4959230;29;20031;-84
2023/09/04 06:21:56;;;;;;;0.00;0.00;;;22.20;75.10;;;;;;4954233;28;20028;-84
2023/09/04 06:24:22;;;;;;;0.00;0.00;;;22.30;75.00;;;;;;4958143;28;20019;-85
2023/09/04 06:26:48;;;;;;;0.10;0.00;;;22.30;74.90;;;;;;4958362;28;20502;-85
2023/09/04 06:29:16;;;;;;;0.00;0.00;;;22.30;74.90;;;;;;4958923;29;20031;-85
2023/09/04 06:31:42;;;;;;;0.00;0.00;;;22.30;74.90;;;;;;4940869;28;20486;-84
2023/09/04 06:34:07;;;;;;;0.00;0.00;;;22.30;74.90;;;;;;4939433;29;20036;-85
2023/09/04 06:36:33;;;;;;;0.00;0.00;;;22.30;74.80;;;;;;4958871;29;20019;-83
2023/09/04 06:38:59;;;;;;;0.03;0.03;;;22.30;74.80;;;;;;4959297;29;20027;-86
2023/09/04 06:41:25;;;;;;;0.00;0.00;;;22.30;74.70;;;;;;4949854;29;20035;-83
2023/09/04 06:43:51;;;;;;;0.00;0.00;;;22.40;74.50;;;;;;4943481;29;20038;-84
2023/09/04 06:46:17;;;;;;;0.00;0.00;;;22.50;74.60;;;;;;4938109;29;20039;-90
2023/09/04 06:48:42;;;;;;;0.00;0.00;;;22.50;74.30;;;;;;4939956;29;20041;-90
2023/09/04 06:51:08;;;;;;;0.00;0.00;;;22.50;74.10;;;;;;4943637;28;20075;-88
2023/09/04 06:53:34;;;;;;;0.00;0.00;;;22.60;74.10;;;;;;4931265;29;20038;-88
2023/09/04 06:56:00;;;;;;;0.00;0.00;;;22.70;74.10;;;;;;4939706;29;20035;-86
2023/09/04 06:58:26;;;;;;;0.00;0.00;;;22.70;73.70;;;;;;4952761;28;20058;-88
2023/09/04 07:00:55;;;;;;;0.00;0.00;;;22.70;73.70;;;;;;4936912;28;20135;-89
2023/09/04 07:03:21;;;;;;;0.00;0.00;;;22.80;73.70;;;;;;4953350;28;20550;-88
2023/09/04 07:05:49;;;;;;;0.00;0.00;;;22.80;73.40;;;;;;4934063;28;20048;-88
2023/09/04 07:08:14;;;;;;;0.10;0.00;;;22.80;73.10;;;;;;4938179;28;20584;-87
2023/09/04 07:10:40;;;;;;;0.00;0.00;;;22.90;73.20;;;;;;4954700;28;20058;-88
2023/09/04 07:13:06;;;;;;;0.00;0.00;;;23.00;72.80;;;;;;4937518;28;20031;-85
2023/09/04 07:15:31;;;;;;;0.00;0.00;;;23.10;72.50;;;;;;4936563;28;20150;-86
2023/09/04 07:17:59;;;;;;;0.00;0.00;;;23.20;72.50;;;;;;4936730;28;20059;-87
2023/09/04 07:20:28;;;;;;;0.00;0.00;;;23.20;72.30;;;;;;4955075;28;20553;-87
2023/09/04 07:22:54;;;;;;;0.10;0.10;;;23.30;71.90;;;;;;4936247;29;20019;-86
2023/09/04 07:25:21;;;;;;;0.08;0.08;;;23.50;71.80;;;;;;4951635;28;20098;-87
2023/09/04 07:27:47;;;;;;;0.00;0.00;;;23.80;71.20;;;;;;4933439;28;20031;-88
2023/09/04 07:30:12;;;;;;;0.03;0.03;;;23.80;70.20;;;;;;4935447;29;20082;-87
2023/09/04 07:32:38;;;;;;;0.10;0.10;;;24.00;70.00;;;;;;4950758;28;20058;-88
2023/09/04 07:35:05;;;;;;;0.30;0.30;;;24.20;69.70;;;;;;4935203;28;20678;-86
2023/09/04 07:37:31;;;;;;;0.25;0.25;;;25.40;66.70;;;;;;4933401;29;20027;-88
2023/09/04 07:39:57;;;;;;;0.30;0.30;;;27.30;61.90;;;;;;4956335;28;20031;-86
2023/09/04 07:42:23;;;;;;;0.30;0.30;;;28.20;58.00;;;;;;4952943;28;20561;-86
2023/09/04 07:44:49;;;;;;;0.20;0.20;;;28.20;57.30;;;;;;4954092;28;20031;-85
2023/09/04 07:47:15;;;;;;;0.25;0.25;;;28.10;57.50;;;;;;4936847;28;20045;-86
2023/09/04 07:49:40;;;;;;;0.10;0.10;;;27.80;58.00;;;;;;4935223;28;20035;-87
2023/09/04 07:52:06;;;;;;;0.10;0.10;;;27.40;58.80;;;;;;4936158;28;20418;-85
2023/09/04 07:54:32;;;;;;;0.00;0.00;;;27.00;60.20;;;;;;4947776;28;20037;-87
2023/09/04 07:56:59;;;;;;;0.05;0.05;;;26.70;61.30;;;;;;4952808;28;20027;-85
2023/09/04 07:59:25;;;;;;;0.00;0.00;;;26.40;61.70;;;;;;4951027;28;20031;-85
2023/09/04 08:01:50;;;;;;;0.00;0.00;;;26.30;61.90;;;;;;4953530;28;20091;-85
2023/09/04 08:04:16;;;;;;;0.00;0.00;;;26.30;62.40;;;;;;4934941;28;20039;-86
2023/09/04 08:06:42;;;;;;;0.00;0.00;;;26.40;62.10;;;;;;4953500;28;20062;-87
2023/09/04 08:09:08;;;;;;;0.00;0.00;;;26.50;61.20;;;;;;4952309;28;20035;-85
2023/09/04 08:11:35;;;;;;;0.08;0.00;;;26.70;60.80;;;;;;4935957;28;20060;-81
2023/09/04 08:14:01;;;;;;;0.00;0.00;;;26.80;59.50;;;;;;4935679;28;20039;-84
2023/09/04 08:16:26;;;;;;;0.10;0.10;;;26.90;59.10;;;;;;4953515;28;20026;-79
2023/09/04 08:18:52;;;;;;;0.00;0.00;;;27.20;58.60;;;;;;4950966;28;20027;-87
2023/09/04 08:21:18;;;;;;;0.00;0.00;;;27.80;57.90;;;;;;4942378;28;20107;-87
2023/09/04 08:23:43;;;;;;;0.00;0.00;;;27.90;55.80;;;;;;4950402;28;20071;-86
2023/09/04 08:26:13;;;;;;;0.00;0.00;;;28.50;55.30;;;;;;4955077;28;20666;-85
2023/09/04 08:28:40;;;;;;;0.00;0.00;;;28.60;54.10;;;;;;4937120;28;20039;-85
2023/09/04 08:31:05;;;;;;;0.00;0.00;;;28.20;55.20;;;;;;4952284;28;20667;-85
2023/09/04 08:33:31;;;;;;;0.00;0.00;;;27.80;56.60;;;;;;4937984;29;20031;-85
2023/09/04 08:35:57;;;;;;;0.00;0.00;;;27.50;57.90;;;;;;4955485;28;20489;-85
2023/09/04 08:38:22;;;;;;;0.00;0.00;;;27.40;58.60;;;;;;4952111;28;20430;-83
2023/09/04 08:40:48;;;;;;;0.00;0.00;;;27.50;58.70;;;;;;4959968;28;20062;-84
2023/09/04 08:43:17;;;;;;;0.00;0.00;;;27.60;57.80;;;;;;4955656;28;20122;-84
2023/09/04 08:45:43;;;;;;;0.00;0.00;;;27.70;57.00;;;;;;4952078;28;20405;-83
2023/09/04 08:48:13;;;;;;;0.00;0.00;;;27.70;57.40;;;;;;4955370;28;20062;-84
2023/09/04 08:50:40;;;;;;;0.00;0.00;;;27.60;57.40;;;;;;4953200;28;20114;-84
2023/09/04 08:53:06;;;;;;;0.00;0.00;;;27.40;58.10;;;;;;4955183;28;20035;-84
2023/09/04 08:55:35;;;;;;;0.00;0.00;;;27.20;57.70;;;;;;4954184;28;20037;-83
2023/09/04 08:58:02;;;;;;;0.08;0.08;;;27.10;58.20;;;;;;4951679;28;20031;-83
2023/09/04 09:00:28;;;;;;;0.00;0.00;;;27.10;59.80;;;;;;4937965;29;20027;-83
2023/09/04 09:02:57;;;;;;;0.00;0.00;;;26.90;58.10;;;;;;4954671;28;20067;-83
2023/09/04 09:05:24;;;;;;;0.00;0.00;;;27.00;59.90;;;;;;4938236;28;20031;-83
2023/09/04 09:07:51;;;;;;;0.00;0.00;;;27.00;59.30;;;;;;4955617;28;20059;-84
2023/09/04 09:10:19;;;;;;;0.00;0.00;;;27.20;59.80;;;;;;4954716;28;20031;-84
2023/09/04 09:12:45;;;;;;;0.00;0.00;;;27.40;57.80;;;;;;4955212;28;20421;-86
2023/09/04 09:15:11;;;;;;;0.00;0.00;;;27.50;57.70;;;;;;4937277;29;20035;-86
2023/09/04 09:17:53;;;;;;;0.00;0.00;;;27.70;57.10;;;;;;4955013;28;20496;-83
2023/09/04 09:20:33;;;;;;;0.00;0.00;;;28.40;56.90;;;;;;4954447;28;20397;-83
2023/09/04 09:22:59;;;;;;;0.00;0.00;;;28.90;56.40;;;;;;4956993;28;20050;-83
2023/09/04 09:25:27;;;;;;;0.00;0.00;;;29.10;55.00;;;;;;4941620;28;20488;-83
2023/09/04 09:28:01;;;;;;;0.00;0.00;;;29.00;54.20;;;;;;4940505;28;20027;-83
2023/09/04 09:30:38;;;;;;;0.00;0.00;;;28.60;53.60;;;;;;4941158;28;20051;-85
2023/09/04 09:33:09;;;;;;;0.00;0.00;;;28.30;54.80;;;;;;4956433;28;20038;-85
2023/09/04 09:35:38;;;;;;;0.00;0.00;;;28.20;55.90;;;;;;4953814;28;20098;-85
2023/09/04 09:38:04;;;;;;;0.00;0.00;;;28.10;56.00;;;;;;4957308;28;20035;-85
2023/09/04 09:40:31;;;;;;;0.00;0.00;;;28.00;56.00;;;;;;4958240;28;20438;-85
2023/09/04 09:42:59;;;;;;;0.00;0.00;;;28.00;57.60;;;;;;4958178;28;20065;-85
2023/09/04 09:45:33;;;;;;;0.00;0.00;;;28.10;57.10;;;;;;4958330;28;20770;-85
2023/09/04 09:48:07;;;;;;;0.00;0.00;;;28.00;54.70;;;;;;4952138;28;20046;-85
2023/09/04 09:50:34;;;;;;;0.00;0.00;;;28.00;54.00;;;;;;4958344;28;20024;-84
2023/09/04 09:53:02;;;;;;;0.00;0.00;;;28.10;55.40;;;;;;4956496;28;20098;-83
2023/09/04 09:55:30;;;;;;;0.00;0.00;;;28.20;54.90;;;;;;4958098;28;20023;-84
2023/09/04 09:57:58;;;;;;;0.00;0.00;;;28.30;55.20;;;;;;4940465;29;20039;-85
2023/09/04 10:00:25;;;;;;;0.08;0.08;;;28.30;57.00;;;;;;4957185;28;20031;-85
2023/09/04 10:02:51;;;;;;;0.15;0.15;;;28.30;56.00;;;;;;4941049;28;20064;-85
2023/09/04 10:05:19;;;;;;;0.00;0.00;;;28.50;55.50;;;;;;4940148;29;20058;-85
2023/09/04 10:07:49;;;;;;;0.00;0.00;;;28.70;54.50;;;;;;4958280;28;20110;-83
2023/09/04 10:10:15;;;;;;;0.00;0.00;;;28.90;53.20;;;;;;4957875;28;20400;-83
2023/09/04 10:13:02;;;;;;;0.00;0.00;;;29.20;53.90;;;;;;4957912;28;20486;-83
2023/09/04 10:15:32;;;;;;;0.10;0.10;;;29.50;51.80;;;;;;4945671;28;20078;-83
2023/09/04 10:18:06;;;;;;;1.02;1.02;;;29.60;48.20;;;;;;4955251;28;20027;-83
2023/09/04 10:20:33;;;;;;;0.00;0.00;;;29.60;47.40;;;;;;4955339;28;20078;-83
2023/09/04 10:23:10;;;;;;;0.00;0.00;;;29.60;49.50;;;;;;4953850;28;20062;-85
2023/09/04 10:25:52;;;;;;;0.00;0.00;;;29.50;51.30;;;;;;4957635;28;20023;-83
2023/09/04 10:28:20;;;;;;;0.00;0.00;;;29.30;50.70;;;;;;4957383;28;20042;-83
2023/09/04 10:30:52;;;;;;;0.00;0.00;;;29.30;50.30;;;;;;4951212;28;20082;-84
2023/09/04 10:33:19;;;;;;;0.00;0.00;;;29.30;49.80;;;;;;4940225;28;20045;-83
2023/09/04 10:35:45;;;;;;;0.05;0.05;;;29.30;48.80;;;;;;4957233;28;20973;-83
2023/09/04 10:38:11;;;;;;;0.00;0.00;;;29.30;48.40;;;;;;4956635;28;20048;-83
2023/09/04 10:40:38;;;;;;;0.00;0.00;;;29.30;50.70;;;;;;4940704;28;20453;-82
2023/09/04 10:43:04;;;;;;;0.00;0.00;;;29.40;48.30;;;;;;4954995;28;20489;-81
2023/09/04 10:45:31;;;;;;;0.00;0.00;;;29.40;47.70;;;;;;4940209;28;20130;-82
2023/09/04 10:47:57;;;;;;;0.00;0.00;;;29.40;47.50;;;;;;4938785;29;20035;-82
2023/09/04 10:50:27;;;;;;;0.00;0.00;;;29.40;46.10;;;;;;4938789;28;20060;-82
2023/09/04 10:52:53;;;;;;;0.00;0.00;;;29.50;45.80;;;;;;4957345;28;20035;-82
2023/09/04 10:55:19;;;;;;;0.00;0.00;;;29.50;45.30;;;;;;4955999;28;20031;-82
2023/09/04 10:58:06;;;;;;;0.00;0.00;;;29.60;44.70;;;;;;4952666;28;20058;-81
2023/09/04 11:00:39;;;;;;;0.00;0.00;;;29.60;44.70;;;;;;4957665;28;20079;-82
2023/09/04 11:03:12;;;;;;;0.00;0.00;;;29.70;44.90;;;;;;4954140;28;20039;-81
2023/09/04 11:06:02;;;;;;;0.00;0.00;;;29.80;45.00;;;;;;4954469;28;20027;-82
2023/09/04 11:08:29;;;;;;;0.00;0.00;;;29.80;46.10;;;;;;4952718;28;20031;-81
2023/09/04 11:11:03;;;;;;;0.00;0.00;;;29.90;46.20;;;;;;4940477;29;20394;-82
2023/09/04 11:13:29;;;;;;;0.00;0.00;;;29.90;42.80;;;;;;4957331;28;20118;-82
2023/09/04 11:15:55;;;;;;;0.00;0.00;;;29.90;42.90;;;;;;4939110;28;20050;-82
2023/09/04 11:18:27;;;;;;;0.00;0.00;;;30.00;44.30;;;;;;4956421;28;20074;-82
2023/09/04 11:20:55;;;;;;;0.00;0.00;;;30.10;44.00;;;;;;4956398;28;20093;-82
2023/09/04 11:23:23;;;;;;;0.00;0.00;;;30.20;42.60;;;;;;4937991;29;20490;-82
2023/09/04 11:25:52;;;;;;;0.00;0.00;;;30.30;43.60;;;;;;4957041;28;20027;-82
2023/09/04 11:28:25;;;;;;;0.03;0.03;;;30.30;44.20;;;;;;4939517;28;20024;-81
2023/09/04 11:30:58;;;;;;;0.00;0.00;;;30.30;43.60;;;;;;4938523;28;20051;-82
2023/09/04 11:33:29;;;;;;;0.00;0.00;;;30.40;43.30;;;;;;4956653;28;20051;-81
2023/09/04 11:36:03;;;;;;;0.00;0.00;;;30.50;43.00;;;;;;4957129;28;20019;-81
2023/09/04 11:38:30;;;;;;;0.00;0.00;;;30.50;42.20;;;;;;4951353;28;20027;-82
2023/09/04 11:40:56;;;;;;;0.00;0.00;;;30.50;41.00;;;;;;4959163;28;20075;-80
2023/09/04 11:43:27;;;;;;;0.00;0.00;;;30.60;40.30;;;;;;4955066;28;20047;-80
2023/09/04 11:45:57;;;;;;;0.00;0.00;;;30.60;40.40;;;;;;4955509;28;20035;-81
2023/09/04 11:48:24;;;;;;;0.10;0.10;;;30.60;39.10;;;;;;4939000;28;20862;-80
2023/09/04 11:50:51;;;;;;;0.00;0.00;;;30.70;39.90;;;;;;4954857;28;20058;-80
2023/09/04 11:53:17;;;;;;;0.00;0.00;;;30.70;40.00;;;;;;4956710;28;20103;-81
2023/09/04 11:55:43;;;;;;;0.00;0.00;;;30.80;38.50;;;;;;4955936;28;20019;-80
2023/09/04 11:58:08;;;;;;;0.00;0.00;;;30.80;38.70;;;;;;4956264;28;20379;-79
2023/09/04 12:00:34;;;;;;;0.00;0.00;;;30.80;38.30;;;;;;4952521;28;20020;-79
2023/09/04 12:03:00;;;;;;;0.00;0.00;;;30.90;39.20;;;;;;4937731;28;20035;-79
2023/09/04 12:05:26;;;;;;;0.00;0.00;;;31.00;38.20;;;;;;4955943;28;20034;-79
2023/09/04 12:07:53;;;;;;;0.00;0.00;;;30.90;37.30;;;;;;4956869;28;20036;-80
2023/09/04 12:10:18;;;;;;;0.00;0.00;;;31.00;38.20;;;;;;4937458;28;20035;-79
2023/09/04 12:12:44;;;;;;;0.00;0.00;;;31.20;39.30;;;;;;4955760;28;20031;-79
2023/09/04 12:15:10;;;;;;;0.00;0.00;;;31.20;38.70;;;;;;4939017;29;20026;-79
2023/09/04 12:17:36;;;;;;;0.00;0.00;;;31.20;39.10;;;;;;4937851;28;20078;-79
2023/09/04 12:20:08;;;;;;;0.10;0.00;;;31.30;38.70;;;;;;4938915;28;20027;-79
2023/09/04 12:22:33;;;;;;;0.03;0.00;;;31.20;38.60;;;;;;4937351;28;20057;-79
2023/09/04 12:25:08;;;;;;;0.10;0.10;;;31.20;38.10;;;;;;4955904;28;20114;-79
2023/09/04 12:27:35;;;;;;;0.00;0.00;;;31.20;38.10;;;;;;4954961;28;20087;-78
2023/09/04 12:30:01;;;;;;;0.00;0.00;;;31.30;38.90;;;;;;4955807;28;20501;-79
2023/09/04 12:32:27;;;;;;;0.00;0.00;;;31.30;38.20;;;;;;4950702;28;20052;-80
2023/09/04 12:35:04;;;;;;;0.00;0.00;;;31.30;37.40;;;;;;4939181;29;20020;-79
2023/09/04 12:37:38;;;;;;;0.00;0.00;;;31.40;39.50;;;;;;4947369;28;20031;-79
2023/09/04 12:40:05;;;;;;;0.00;0.00;;;31.40;38.30;;;;;;4956818;28;20027;-79
2023/09/04 12:42:30;;;;;;;0.00;0.00;;;31.40;38.90;;;;;;4937914;29;20102;-79
2023/09/04 12:44:56;;;;;;;0.13;0.00;;;31.40;38.80;;;;;;4955822;28;20540;-79
2023/09/04 12:47:22;;;;;;;0.00;0.00;;;31.40;37.30;;;;;;4955074;28;20490;-79
2023/09/04 12:49:50;;;;;;;0.00;0.00;;;31.50;38.10;;;;;;4952504;28;20100;-80
2023/09/04 12:52:16;;;;;;;0.00;0.00;;;31.50;36.60;;;;;;4955889;28;20034;-79
2023/09/04 12:54:42;;;;;;;0.00;0.00;;;31.60;37.50;;;;;;4955340;28;20035;-80
2023/09/04 12:57:07;;;;;;;0.00;0.00;;;31.60;36.80;;;;;;4952492;28;20023;-79
2023/09/04 12:59:33;;;;;;;0.00;0.00;;;31.70;36.80;;;;;;4942750;29;20038;-79
2023/09/04 13:01:58;;;;;;;0.00;0.00;;;31.80;37.60;;;;;;4958590;28;20050;-79
2023/09/04 13:04:24;;;;;;;0.00;0.00;;;31.80;36.80;;;;;;4959501;28;20074;-79
2023/09/04 13:06:50;;;;;;;0.00;0.00;;;31.80;37.10;;;;;;4957320;28;20035;-80
2023/09/04 13:09:16;;;;;;;0.00;0.00;;;31.80;36.60;;;;;;4959128;28;20082;-79
2023/09/04 13:11:42;;;;;;;0.00;0.00;;;31.90;37.80;;;;;;4958869;28;20058;-83
2023/09/04 13:14:07;;;;;;;0.00;0.00;;;31.90;37.50;;;;;;4941316;28;20031;-79
2023/09/04 13:16:33;;;;;;;0.00;0.00;;;31.90;37.40;;;;;;4955199;28;20027;-78
2023/09/04 13:18:59;;;;;;;0.00;0.00;;;31.90;38.50;;;;;;4937771;29;20130;-88
2023/09/04 13:21:25;;;;;;;0.10;0.10;;;32.00;37.50;;;;;;4951974;28;20109;-87
2023/09/04 13:23:51;;;;;;;0.20;0.10;;;32.00;36.10;;;;;;4954268;28;20038;-86
2023/09/04 13:26:18;;;;;;;0.00;0.00;;;32.00;38.00;;;;;;4939184;28;20042;-87
2023/09/04 13:28:43;;;;;;;0.00;0.00;;;32.00;36.70;;;;;;4957089;28;20023;-84
2023/09/04 13:31:12;;;;;;;0.08;0.08;;;32.00;37.00;;;;;;4953409;28;20051;-85
2023/09/04 13:33:38;;;;;;;0.10;0.10;;;32.00;37.50;;;;;;4947487;28;20430;-83
2023/09/04 13:36:04;;;;;;;0.00;0.00;;;32.10;37.90;;;;;;4952985;28;20034;-84
2023/09/04 13:38:29;;;;;;;0.00;0.00;;;32.20;37.80;;;;;;4941510;28;20031;-84
2023/09/04 13:40:55;;;;;;;0.00;0.00;;;32.20;37.40;;;;;;4957423;28;20023;-86
2023/09/04 13:43:21;;;;;;;0.00;0.00;;;32.10;37.00;;;;;;4938568;29;20146;-83
2023/09/04 13:45:46;;;;;;;0.00;0.00;;;32.20;36.60;;;;;;4939794;28;20422;-84
2023/09/04 13:48:12;;;;;;;0.00;0.00;;;32.10;36.50;;;;;;4957230;28;20556;-84
2023/09/04 13:50:37;;;;;;;0.00;0.00;;;32.10;37.80;;;;;;4957892;28;20031;-83
2023/09/04 13:53:03;;;;;;;0.00;0.00;;;32.10;37.20;;;;;;4952360;28;20042;-83
2023/09/04 13:55:29;;;;;;;0.00;0.00;;;32.10;37.50;;;;;;4935571;28;20031;-83
2023/09/04 13:57:55;;;;;;;0.10;0.10;;;32.10;37.20;;;;;;4953898;28;20086;-83
2023/09/04 14:00:21;;;;;;;0.00;0.00;;;32.10;38.00;;;;;;4952583;28;20584;-84
2023/09/04 14:02:47;;;;;;;0.10;0.10;;;32.00;37.10;;;;;;4938679;28;20421;-84
2023/09/04 14:05:18;;;;;;;0.10;0.10;;;32.10;37.00;;;;;;4952874;28;20827;-83
2023/09/04 14:07:44;;;;;;;0.00;0.00;;;32.10;38.40;;;;;;4954249;28;20094;-82
2023/09/04 14:10:10;;;;;;;0.10;0.10;;;32.20;38.00;;;;;;4938518;29;20039;-86
2023/09/04 14:12:35;;;;;;;0.00;0.00;;;32.20;37.20;;;;;;4956430;28;20540;-87
2023/09/04 14:15:03;;;;;;;0.00;0.00;;;32.30;37.40;;;;;;4939899;28;20023;-87
2023/09/04 14:17:28;;;;;;;0.00;0.00;;;32.30;37.90;;;;;;4958194;28;20033;-86
2023/09/04 14:19:55;;;;;;;0.00;0.00;;;32.30;37.90;;;;;;4955160;28;20542;-88
2023/09/04 14:22:21;;;;;;;0.10;0.10;;;32.30;38.20;;;;;;4940232;28;20034;-86
2023/09/04 14:24:47;;;;;;;0.00;0.00;;;32.30;37.10;;;;;;4957719;28;20034;-87
2023/09/04 14:27:13;;;;;;;0.00;0.00;;;32.40;37.50;;;;;;4940190;28;20090;-86
2023/09/04 14:29:39;;;;;;;0.00;0.00;;;32.40;36.90;;;;;;4955916;28;20035;-86
2023/09/04 14:32:05;;;;;;;0.00;0.00;;;32.40;38.30;;;;;;4956663;28;20515;-86
2023/09/04 14:34:31;;;;;;;0.00;0.00;;;32.40;36.70;;;;;;4957797;28;20070;-87
2023/09/04 14:36:56;;;;;;;0.00;0.00;;;32.40;38.10;;;;;;4957889;28;20019;-88
2023/09/04 14:39:22;;;;;;;0.00;0.00;;;32.40;36.30;;;;;;4939733;28;20031;-86
2023/09/04 14:41:48;;;;;;;0.00;0.00;;;32.40;38.20;;;;;;4942990;28;20035;-86
2023/09/04 14:44:13;;;;;;;0.00;0.00;;;32.40;37.30;;;;;;4939907;29;20031;-87
2023/09/04 14:46:39;;;;;;;0.00;0.00;;;32.40;37.40;;;;;;4956717;28;20505;-86
2023/09/04 14:49:05;;;;;;;0.05;0.05;;;32.40;37.80;;;;;;4953404;28;20043;-86
2023/09/04 14:51:31;;;;;;;0.00;0.00;;;32.40;37.20;;;;;;4940213;29;20118;-86
2023/09/04 14:53:57;;;;;;;0.00;0.00;;;32.30;36.00;;;;;;4956787;28;20055;-86
2023/09/04 14:56:25;;;;;;;0.00;0.00;;;32.40;37.50;;;;;;4957274;28;20717;-86
2023/09/04 14:58:51;;;;;;;0.00;0.00;;;32.40;38.40;;;;;;4954473;28;20037;-86
2023/09/04 15:01:19;;;;;;;0.00;0.00;;;32.40;38.80;;;;;;4953964;28;20041;-85
2023/09/04 15:03:46;;;;;;;0.00;0.00;;;32.40;39.20;;;;;;4954916;28;20047;-87
2023/09/04 15:06:12;;;;;;;0.00;0.00;;;32.40;39.20;;;;;;4939504;28;20035;-87
2023/09/04 15:08:38;;;;;;;0.00;0.00;;;32.40;39.90;;;;;;4940200;29;20620;-86
2023/09/04 15:11:05;;;;;;;0.00;0.00;;;32.40;39.90;;;;;;4939442;28;20123;-87
2023/09/04 15:13:34;;;;;;;0.00;0.00;;;32.40;39.50;;;;;;4956702;28;20027;-85
2023/09/04 15:16:04;;;;;;;0.00;0.00;;;32.30;38.40;;;;;;4957350;28;20102;-86
2023/09/04 15:18:33;;;;;;;0.00;0.00;;;32.40;38.70;;;;;;4935682;29;20027;-85
2023/09/04 15:21:00;;;;;;;0.00;0.00;;;32.30;39.10;;;;;;4956874;28;20023;-86
2023/09/04 15:23:27;;;;;;;0.00;0.00;;;32.30;39.50;;;;;;4939067;28;20039;-86
2023/09/04 15:25:53;;;;;;;0.00;0.00;;;32.30;38.40;;;;;;4939408;28;20085;-87
2023/09/04 15:28:19;;;;;;;0.00;0.00;;;32.30;37.10;;;;;;4938367;28;20057;-86
2023/09/04 15:30:45;;;;;;;0.00;0.00;;;32.30;38.80;;;;;;4956429;28;20055;-87
2023/09/04 15:33:10;;;;;;;0.00;0.00;;;32.30;39.40;;;;;;4955094;28;20170;-87
2023/09/04 15:35:36;;;;;;;0.00;0.00;;;32.20;39.60;;;;;;4955266;28;20027;-86
2023/09/04 15:38:02;;;;;;;0.00;0.00;;;32.30;39.60;;;;;;4955630;28;20035;-86
2023/09/04 15:40:27;;;;;;;0.00;0.00;;;32.20;40.80;;;;;;4961111;28;20031;-86
2023/09/04 15:42:54;;;;;;;0.00;0.00;;;32.20;40.40;;;;;;4938463;28;20043;-86
2023/09/04 15:45:19;;;;;;;0.00;0.00;;;32.20;40.40;;;;;;4939356;29;20125;-86
2023/09/04 15:47:45;;;;;;;0.00;0.00;;;32.20;40.60;;;;;;4939123;28;20074;-86
2023/09/04 15:50:11;;;;;;;0.00;0.00;;;32.10;40.70;;;;;;4955758;28;20055;-86
2023/09/04 15:52:37;;;;;;;0.00;0.00;;;32.10;39.30;;;;;;4939506;29;20086;-86
2023/09/04 15:55:02;;;;;;;0.10;0.00;;;32.00;40.50;;;;;;4955939;28;20031;-86
2023/09/04 15:57:28;;;;;;;0.00;0.00;;;32.00;40.70;;;;;;4938394;28;20038;-87
2023/09/04 15:59:54;;;;;;;0.00;0.00;;;32.10;40.80;;;;;;4955708;28;20055;-85
2023/09/04 16:02:19;;;;;;;0.00;0.00;;;32.00;40.50;;;;;;4934324;29;20122;-86
2023/09/04 16:04:45;;;;;;;0.00;0.00;;;32.00;40.70;;;;;;4954042;28;20042;-84
2023/09/04 16:07:11;;;;;;;0.00;0.00;;;31.90;40.00;;;;;;4956279;28;20066;-82
2023/09/04 16:09:36;;;;;;;0.00;0.00;;;31.90;40.30;;;;;;4951645;28;20401;-82
2023/09/04 16:12:02;;;;;;;0.00;0.00;;;31.90;41.00;;;;;;4949454;28;20039;-82
2023/09/04 16:14:28;;;;;;;0.00;0.00;;;31.80;40.80;;;;;;4938167;29;20171;-80
2023/09/04 16:16:53;;;;;;;0.00;0.00;;;31.80;41.50;;;;;;4952148;28;20034;-82
2023/09/04 16:19:19;;;;;;;0.00;0.00;;;31.80;40.90;;;;;;4954366;28;20031;-81
2023/09/04 16:21:47;;;;;;;0.00;0.00;;;31.80;40.70;;;;;;4954751;28;20055;-82
2023/09/04 16:24:13;;;;;;;0.00;0.00;;;31.70;40.60;;;;;;4935297;29;20027;-81
2023/09/04 16:26:39;;;;;;;0.00;0.00;;;31.70;41.00;;;;;;4953592;28;20031;-82
2023/09/04 16:29:08;;;;;;;0.00;0.00;;;31.60;41.20;;;;;;4954029;28;20035;-81
2023/09/04 16:31:34;;;;;;;0.00;0.00;;;31.60;41.10;;;;;;4952421;28;20054;-84
2023/09/04 16:34:04;;;;;;;0.00;0.00;;;31.50;41.10;;;;;;4940992;28;20039;-84
2023/09/04 16:36:30;;;;;;;0.00;0.00;;;31.40;41.30;;;;;;4958242;28;20019;-84
2023/09/04 16:38:56;;;;;;;0.00;0.00;;;31.40;40.50;;;;;;4956610;28;20012;-84
2023/09/04 16:41:23;;;;;;;0.00;0.00;;;31.30;41.10;;;;;;4959299;28;20386;-83
2023/09/04 16:43:49;;;;;;;0.00;0.00;;;31.30;41.60;;;;;;4939761;29;20028;-83
2023/09/04 16:46:14;;;;;;;0.00;0.00;;;31.30;41.70;;;;;;4956858;28;20441;-81
2023/09/04 16:48:41;;;;;;;0.00;0.00;;;31.30;42.00;;;;;;4956722;28;20924;-82
2023/09/04 16:51:07;;;;;;;0.00;0.00;;;31.20;41.10;;;;;;4958464;28;21683;-82
2023/09/04 16:53:33;;;;;;;0.00;0.00;;;31.10;41.40;;;;;;4957920;28;20028;-82
2023/09/04 16:55:59;;;;;;;0.00;0.00;;;31.00;41.90;;;;;;4948747;28;20040;-82
2023/09/04 16:58:25;;;;;;;0.00;0.00;;;31.00;42.00;;;;;;4940617;28;20481;-82
2023/09/04 17:00:51;;;;;;;0.00;0.00;;;31.00;41.70;;;;;;4954163;28;20031;-81
2023/09/04 17:03:17;;;;;;;0.00;0.00;;;30.90;42.10;;;;;;4952655;28;20062;-81
2023/09/04 17:05:43;;;;;;;0.00;0.00;;;30.80;42.10;;;;;;4938530;29;20661;-81
2023/09/04 17:08:08;;;;;;;0.00;0.00;;;30.80;42.80;;;;;;4958848;29;20027;-82
2023/09/04 17:10:34;;;;;;;0.00;0.00;;;30.80;43.30;;;;;;4959546;28;20992;-83
2023/09/04 17:13:00;;;;;;;0.00;0.00;;;30.80;44.00;;;;;;4952774;28;20090;-83
2023/09/04 17:15:25;;;;;;;0.00;0.00;;;30.70;44.70;;;;;;4941476;29;20027;-86
2023/09/04 17:17:52;;;;;;;0.00;0.00;;;30.60;45.20;;;;;;4936758;29;20115;-82